DLH637 EDDN-EBBR
Flight info
| Callsign | DLH637 |
|---|---|
| Flight time | 0h 49m |
| Altitude | 24000 |
| Route | SUKAD1G/28 SUKAD Y165 REKDI Z104 SPESA DCT NOKDI Z104 GESLO N852 LNO |
| Aircraft | A339/H-SADE1E2E3GHIJ3J5M1P2RWXY/LB2D1 |
Departure
| Time | 2026-05-07 19:16 |
|---|---|
| Airport | Nuremberg Airport (EDDN) |
Arrival
| Time | 2026-05-07 20:05 |
|---|---|
| Airport | Brussels Airport (EBBR) |
| Time | Latitude | Longitude | Altitude | Speed | Heading |
|---|---|---|---|---|---|
| 2026-05-07 18:54 | 49.49513 | 11.07858 | 1031 ft | 0 kts | 188° |
| 2026-05-07 19:06 | 49.49538 | 11.07864 | 1035 ft | 3 kts | 188° |
| 2026-05-07 19:06 | 49.49555 | 11.07869 | 1036 ft | 2 kts | 165° |
| 2026-05-07 19:07 | 49.49568 | 11.07865 | 1036 ft | 1 kts | 137° |
| 2026-05-07 19:07 | 49.49575 | 11.07859 | 1036 ft | 1 kts | 119° |
| 2026-05-07 19:07 | 49.49580 | 11.07851 | 1036 ft | 0 kts | 97° |
| 2026-05-07 19:09 | 49.49578 | 11.07870 | 1036 ft | 5 kts | 97° |
| 2026-05-07 19:10 | 49.49568 | 11.07955 | 1036 ft | 11 kts | 100° |
| 2026-05-07 19:10 | 49.49553 | 11.08088 | 1036 ft | 15 kts | 99° |
| 2026-05-07 19:10 | 49.49537 | 11.08259 | 1037 ft | 17 kts | 98° |
| 2026-05-07 19:10 | 49.49536 | 11.08292 | 1038 ft | 4 kts | 92° |
| 2026-05-07 19:11 | 49.49549 | 11.08336 | 1038 ft | 5 kts | 51° |
| 2026-05-07 19:11 | 49.49592 | 11.08369 | 1038 ft | 10 kts | 32° |
| 2026-05-07 19:11 | 49.49608 | 11.08484 | 1038 ft | 12 kts | 92° |
| 2026-05-07 19:11 | 49.49596 | 11.08627 | 1039 ft | 14 kts | 98° |
| 2026-05-07 19:12 | 49.49580 | 11.08792 | 1041 ft | 16 kts | 98° |
| 2026-05-07 19:12 | 49.49563 | 11.08974 | 1043 ft | 18 kts | 98° |
| 2026-05-07 19:12 | 49.49542 | 11.09179 | 1044 ft | 20 kts | 98° |
| 2026-05-07 19:12 | 49.49535 | 11.09342 | 1048 ft | 13 kts | 79° |
| 2026-05-07 19:13 | 49.49585 | 11.09468 | 1048 ft | 15 kts | 52° |
| 2026-05-07 19:13 | 49.49594 | 11.09487 | 1048 ft | 0 kts | 53° |
| 2026-05-07 19:13 | 49.49601 | 11.09501 | 1048 ft | 0 kts | 53° |
| 2026-05-07 19:14 | 49.49601 | 11.09502 | 1048 ft | 0 kts | 53° |
| 2026-05-07 19:14 | 49.49609 | 11.09518 | 1049 ft | 3 kts | 53° |
| 2026-05-07 19:14 | 49.49630 | 11.09549 | 1050 ft | 5 kts | 35° |
| 2026-05-07 19:14 | 49.49666 | 11.09559 | 1051 ft | 6 kts | 359° |
| 2026-05-07 19:15 | 49.49696 | 11.09514 | 1050 ft | 7 kts | 302° |
| 2026-05-07 19:15 | 49.49716 | 11.09376 | 1048 ft | 36 kts | 281° |
| 2026-05-07 19:15 | 49.49813 | 11.08398 | 1034 ft | 147 kts | 279° |
| 2026-05-07 19:15 | 49.49994 | 11.06500 | 1411 ft | 197 kts | 279° |
| 2026-05-07 19:16 | 49.50161 | 11.04407 | 2568 ft | 202 kts | 278° |
| 2026-05-07 19:16 | 49.50291 | 11.02247 | 3876 ft | 204 kts | 277° |
| 2026-05-07 19:16 | 49.50395 | 11.00047 | 5070 ft | 209 kts | 275° |
| 2026-05-07 19:16 | 49.50523 | 10.97721 | 5859 ft | 229 kts | 279° |
| 2026-05-07 19:17 | 49.50854 | 10.95211 | 6473 ft | 250 kts | 283° |
| 2026-05-07 19:17 | 49.51243 | 10.92525 | 6866 ft | 262 kts | 282° |
| 2026-05-07 19:17 | 49.51596 | 10.89768 | 6983 ft | 262 kts | 281° |
| 2026-05-07 19:17 | 49.51903 | 10.86996 | 6997 ft | 264 kts | 279° |
| 2026-05-07 19:18 | 49.52184 | 10.84204 | 7027 ft | 266 kts | 279° |
| 2026-05-07 19:18 | 49.52456 | 10.81372 | 7603 ft | 269 kts | 279° |
| 2026-05-07 19:18 | 49.52725 | 10.78533 | 8667 ft | 269 kts | 278° |
| 2026-05-07 19:18 | 49.52997 | 10.75651 | 9635 ft | 274 kts | 278° |
| 2026-05-07 19:19 | 49.53270 | 10.72760 | 10436 ft | 283 kts | 278° |
| 2026-05-07 19:19 | 49.53575 | 10.69527 | 10194 ft | 328 kts | 278° |
| 2026-05-07 19:19 | 49.53918 | 10.65869 | 10194 ft | 356 kts | 278° |
| 2026-05-07 19:19 | 49.54274 | 10.62105 | 11098 ft | 350 kts | 278° |
| 2026-05-07 19:20 | 49.54614 | 10.58503 | 12042 ft | 334 kts | 278° |
| 2026-05-07 19:20 | 49.55168 | 10.55043 | 12577 ft | 335 kts | 292° |
| 2026-05-07 19:20 | 49.56456 | 10.52047 | 12880 ft | 338 kts | 313° |
| 2026-05-07 19:20 | 49.58340 | 10.49876 | 13094 ft | 341 kts | 327° |
| 2026-05-07 19:21 | 49.60389 | 10.47994 | 13278 ft | 344 kts | 328° |
| 2026-05-07 19:21 | 49.62459 | 10.46109 | 14001 ft | 346 kts | 328° |
| 2026-05-07 19:21 | 49.64403 | 10.43937 | 14760 ft | 346 kts | 315° |
| 2026-05-07 19:21 | 49.65838 | 10.41012 | 15524 ft | 347 kts | 298° |
| 2026-05-07 19:22 | 49.66698 | 10.37525 | 16228 ft | 350 kts | 286° |
| 2026-05-07 19:22 | 49.67376 | 10.33888 | 16960 ft | 353 kts | 286° |
| 2026-05-07 19:22 | 49.68068 | 10.30227 | 17706 ft | 356 kts | 286° |
| 2026-05-07 19:22 | 49.68777 | 10.26537 | 18426 ft | 360 kts | 286° |
| 2026-05-07 19:23 | 49.69498 | 10.22816 | 19051 ft | 364 kts | 286° |
| 2026-05-07 19:23 | 49.70228 | 10.19059 | 19685 ft | 367 kts | 286° |
| 2026-05-07 19:23 | 49.70968 | 10.15246 | 20326 ft | 371 kts | 286° |
| 2026-05-07 19:23 | 49.71713 | 10.11402 | 20952 ft | 375 kts | 286° |
| 2026-05-07 19:24 | 49.72465 | 10.07514 | 21585 ft | 379 kts | 286° |
| 2026-05-07 19:24 | 49.73222 | 10.03586 | 22220 ft | 383 kts | 286° |
| 2026-05-07 19:24 | 49.73988 | 9.99609 | 22871 ft | 388 kts | 286° |
| 2026-05-07 19:24 | 49.74750 | 9.95639 | 23481 ft | 392 kts | 286° |
| 2026-05-07 19:25 | 49.75528 | 9.91576 | 23884 ft | 395 kts | 286° |
| 2026-05-07 19:25 | 49.76309 | 9.87496 | 24020 ft | 395 kts | 286° |
| 2026-05-07 19:25 | 49.77100 | 9.83349 | 24067 ft | 409 kts | 286° |
| 2026-05-07 19:25 | 49.77904 | 9.79128 | 24062 ft | 408 kts | 286° |
| 2026-05-07 19:26 | 49.78705 | 9.74908 | 24063 ft | 410 kts | 286° |
| 2026-05-07 19:26 | 49.79238 | 9.72098 | 24062 ft | 410 kts | 286° |
| 2026-05-07 19:26 | 49.80039 | 9.67868 | 24062 ft | 409 kts | 286° |
| 2026-05-07 19:26 | 49.80839 | 9.63630 | 24061 ft | 409 kts | 286° |
| 2026-05-07 19:27 | 49.81637 | 9.59393 | 24064 ft | 410 kts | 286° |
| 2026-05-07 19:27 | 49.82433 | 9.55157 | 24064 ft | 409 kts | 286° |
| 2026-05-07 19:27 | 49.83229 | 9.50915 | 24064 ft | 410 kts | 286° |
| 2026-05-07 19:27 | 49.84022 | 9.46677 | 24064 ft | 409 kts | 286° |
| 2026-05-07 19:28 | 49.84813 | 9.42440 | 24062 ft | 410 kts | 286° |
| 2026-05-07 19:28 | 49.85586 | 9.38189 | 24062 ft | 409 kts | 284° |
| 2026-05-07 19:28 | 49.86105 | 9.33857 | 24065 ft | 410 kts | 277° |
| 2026-05-07 19:28 | 49.86296 | 9.29498 | 24063 ft | 410 kts | 271° |
| 2026-05-07 19:29 | 49.86303 | 9.25084 | 24065 ft | 410 kts | 270° |
| 2026-05-07 19:29 | 49.86329 | 9.20669 | 24062 ft | 410 kts | 271° |
| 2026-05-07 19:29 | 49.86362 | 9.16256 | 24062 ft | 410 kts | 271° |
| 2026-05-07 19:29 | 49.86395 | 9.11846 | 24062 ft | 410 kts | 271° |
| 2026-05-07 19:30 | 49.86426 | 9.07407 | 24056 ft | 409 kts | 270° |
| 2026-05-07 19:30 | 49.86455 | 9.02999 | 24061 ft | 409 kts | 270° |
| 2026-05-07 19:30 | 49.86479 | 8.98586 | 24062 ft | 409 kts | 270° |
| 2026-05-07 19:30 | 49.86502 | 8.94171 | 24062 ft | 409 kts | 270° |
| 2026-05-07 19:31 | 49.86523 | 8.89767 | 24061 ft | 409 kts | 270° |
| 2026-05-07 19:31 | 49.86542 | 8.85362 | 24061 ft | 409 kts | 270° |
| 2026-05-07 19:31 | 49.86560 | 8.80949 | 24061 ft | 409 kts | 270° |
| 2026-05-07 19:31 | 49.86576 | 8.76590 | 24062 ft | 409 kts | 270° |
| 2026-05-07 19:32 | 49.86591 | 8.72128 | 24053 ft | 409 kts | 270° |
| 2026-05-07 19:32 | 49.86603 | 8.67735 | 24057 ft | 407 kts | 270° |
| 2026-05-07 19:32 | 49.86614 | 8.63395 | 24056 ft | 408 kts | 270° |
| 2026-05-07 19:32 | 49.86624 | 8.59002 | 24055 ft | 408 kts | 270° |
| 2026-05-07 19:33 | 49.86632 | 8.54606 | 24059 ft | 408 kts | 270° |
| 2026-05-07 19:33 | 49.86660 | 8.50206 | 24057 ft | 408 kts | 272° |
| 2026-05-07 19:33 | 49.86971 | 8.45835 | 24059 ft | 408 kts | 279° |
| 2026-05-07 19:33 | 49.87601 | 8.41544 | 24059 ft | 408 kts | 283° |
| 2026-05-07 19:34 | 49.88276 | 8.37265 | 24056 ft | 408 kts | 283° |
| 2026-05-07 19:34 | 49.88938 | 8.32985 | 24056 ft | 408 kts | 283° |
| 2026-05-07 19:34 | 49.89592 | 8.28708 | 24055 ft | 408 kts | 283° |
| 2026-05-07 19:34 | 49.90236 | 8.24470 | 24059 ft | 409 kts | 283° |
| 2026-05-07 19:35 | 49.90888 | 8.20167 | 24059 ft | 410 kts | 283° |
| 2026-05-07 19:35 | 49.91539 | 8.15867 | 24064 ft | 408 kts | 282° |
| 2026-05-07 19:35 | 49.92186 | 8.11581 | 24064 ft | 409 kts | 282° |
| 2026-05-07 19:35 | 49.92832 | 8.07277 | 24063 ft | 409 kts | 282° |
| 2026-05-07 19:36 | 49.93477 | 8.02973 | 24064 ft | 409 kts | 282° |
| 2026-05-07 19:36 | 49.94119 | 7.98682 | 24065 ft | 409 kts | 282° |
| 2026-05-07 19:36 | 49.94800 | 7.94406 | 24064 ft | 409 kts | 285° |
| 2026-05-07 19:36 | 49.95610 | 7.90159 | 24064 ft | 409 kts | 285° |
| 2026-05-07 19:37 | 49.96417 | 7.85924 | 24061 ft | 409 kts | 285° |
| 2026-05-07 19:37 | 49.97209 | 7.81745 | 24061 ft | 409 kts | 285° |
| 2026-05-07 19:37 | 49.98010 | 7.77510 | 24062 ft | 409 kts | 285° |
| 2026-05-07 19:37 | 49.98809 | 7.73277 | 23978 ft | 406 kts | 285° |
| 2026-05-07 19:38 | 49.99628 | 7.69091 | 23458 ft | 404 kts | 286° |
| 2026-05-07 19:38 | 50.00484 | 7.64959 | 22684 ft | 401 kts | 287° |
| 2026-05-07 19:38 | 50.01343 | 7.60867 | 22220 ft | 394 kts | 287° |
| 2026-05-07 19:38 | 50.02193 | 7.56790 | 22076 ft | 398 kts | 287° |
| 2026-05-07 19:39 | 50.03042 | 7.52685 | 22058 ft | 398 kts | 287° |
| 2026-05-07 19:39 | 50.03886 | 7.48571 | 22070 ft | 398 kts | 286° |
| 2026-05-07 19:39 | 50.04726 | 7.44462 | 22071 ft | 398 kts | 286° |
| 2026-05-07 19:39 | 50.05562 | 7.40353 | 22073 ft | 398 kts | 286° |
| 2026-05-07 19:40 | 50.06393 | 7.36232 | 22072 ft | 398 kts | 286° |
| 2026-05-07 19:40 | 50.07213 | 7.32117 | 22077 ft | 398 kts | 285° |
| 2026-05-07 19:40 | 50.07806 | 7.27960 | 22072 ft | 398 kts | 278° |
| 2026-05-07 19:40 | 50.08070 | 7.23675 | 22074 ft | 397 kts | 272° |
| 2026-05-07 19:41 | 50.08231 | 7.19382 | 22072 ft | 398 kts | 273° |
| 2026-05-07 19:41 | 50.08408 | 7.15082 | 22076 ft | 397 kts | 273° |
| 2026-05-07 19:41 | 50.08589 | 7.10792 | 22079 ft | 398 kts | 273° |
| 2026-05-07 19:41 | 50.08771 | 7.06499 | 22074 ft | 397 kts | 273° |
| 2026-05-07 19:42 | 50.08951 | 7.02197 | 22071 ft | 397 kts | 273° |
| 2026-05-07 19:42 | 50.09129 | 6.97903 | 22074 ft | 397 kts | 273° |
| 2026-05-07 19:42 | 50.09304 | 6.93613 | 22074 ft | 397 kts | 273° |
| 2026-05-07 19:42 | 50.09477 | 6.89308 | 22072 ft | 397 kts | 272° |
| 2026-05-07 19:43 | 50.09487 | 6.85008 | 22055 ft | 398 kts | 267° |
| 2026-05-07 19:43 | 50.09385 | 6.80687 | 22047 ft | 398 kts | 268° |
| 2026-05-07 19:43 | 50.09292 | 6.76385 | 22047 ft | 398 kts | 268° |
| 2026-05-07 19:43 | 50.09441 | 6.72140 | 22056 ft | 398 kts | 279° |
| 2026-05-07 19:44 | 50.10290 | 6.68041 | 22051 ft | 400 kts | 294° |
| 2026-05-07 19:44 | 50.11812 | 6.64407 | 22056 ft | 402 kts | 309° |
| 2026-05-07 19:44 | 50.13898 | 6.61490 | 22059 ft | 404 kts | 322° |
| 2026-05-07 19:44 | 50.16201 | 6.58970 | 22055 ft | 404 kts | 322° |
| 2026-05-07 19:45 | 50.18374 | 6.56182 | 22069 ft | 403 kts | 316° |
| 2026-05-07 19:45 | 50.20336 | 6.53068 | 22067 ft | 403 kts | 310° |
| 2026-05-07 19:45 | 50.22151 | 6.49736 | 22065 ft | 402 kts | 308° |
| 2026-05-07 19:45 | 50.23863 | 6.46345 | 22070 ft | 402 kts | 306° |
| 2026-05-07 19:46 | 50.25562 | 6.42880 | 22075 ft | 401 kts | 306° |
| 2026-05-07 19:46 | 50.27254 | 6.39403 | 22074 ft | 401 kts | 306° |
| 2026-05-07 19:46 | 50.28948 | 6.35926 | 22072 ft | 401 kts | 306° |
| 2026-05-07 19:46 | 50.30638 | 6.32468 | 21943 ft | 400 kts | 306° |
| 2026-05-07 19:47 | 50.32329 | 6.29010 | 21656 ft | 400 kts | 306° |
| 2026-05-07 19:47 | 50.34016 | 6.25560 | 21293 ft | 397 kts | 306° |
| 2026-05-07 19:47 | 50.35695 | 6.22124 | 20914 ft | 395 kts | 306° |
| 2026-05-07 19:47 | 50.37360 | 6.18712 | 20532 ft | 393 kts | 306° |
| 2026-05-07 19:48 | 50.39010 | 6.15326 | 20156 ft | 391 kts | 306° |
| 2026-05-07 19:48 | 50.40637 | 6.11984 | 19788 ft | 389 kts | 306° |
| 2026-05-07 19:48 | 50.42270 | 6.08625 | 19411 ft | 387 kts | 306° |
| 2026-05-07 19:48 | 50.43898 | 6.05271 | 19052 ft | 385 kts | 306° |
| 2026-05-07 19:49 | 50.45517 | 6.01933 | 18687 ft | 383 kts | 306° |
| 2026-05-07 19:49 | 50.47128 | 5.98605 | 18334 ft | 382 kts | 306° |
| 2026-05-07 19:49 | 50.48732 | 5.95288 | 17930 ft | 380 kts | 306° |
| 2026-05-07 19:49 | 50.50322 | 5.91998 | 17542 ft | 378 kts | 306° |
| 2026-05-07 19:50 | 50.51905 | 5.88716 | 17135 ft | 374 kts | 306° |
| 2026-05-07 19:50 | 50.53447 | 5.85519 | 16705 ft | 358 kts | 306° |
| 2026-05-07 19:50 | 50.54918 | 5.82466 | 16194 ft | 343 kts | 306° |
| 2026-05-07 19:50 | 50.56329 | 5.79532 | 15721 ft | 331 kts | 305° |
| 2026-05-07 19:51 | 50.57721 | 5.76631 | 15250 ft | 333 kts | 305° |
| 2026-05-07 19:51 | 50.59111 | 5.73729 | 14780 ft | 331 kts | 305° |
| 2026-05-07 19:51 | 50.60473 | 5.70885 | 14323 ft | 328 kts | 305° |
| 2026-05-07 19:51 | 50.61845 | 5.68018 | 13852 ft | 326 kts | 305° |
| 2026-05-07 19:52 | 50.63206 | 5.65170 | 13328 ft | 324 kts | 305° |
| 2026-05-07 19:52 | 50.64555 | 5.62340 | 12840 ft | 322 kts | 305° |
| 2026-05-07 19:52 | 50.65894 | 5.59530 | 12347 ft | 318 kts | 305° |
| 2026-05-07 19:52 | 50.67201 | 5.56788 | 11849 ft | 306 kts | 306° |
| 2026-05-07 19:53 | 50.68451 | 5.54164 | 11376 ft | 293 kts | 306° |
| 2026-05-07 19:53 | 50.69660 | 5.51619 | 10891 ft | 289 kts | 306° |
| 2026-05-07 19:53 | 50.70872 | 5.49065 | 10437 ft | 290 kts | 306° |
| 2026-05-07 19:53 | 50.72067 | 5.46546 | 9978 ft | 286 kts | 306° |
| 2026-05-07 19:54 | 50.73260 | 5.44027 | 9458 ft | 286 kts | 306° |
| 2026-05-07 19:54 | 50.74438 | 5.41540 | 8970 ft | 282 kts | 306° |
| 2026-05-07 19:54 | 50.75595 | 5.39097 | 8479 ft | 281 kts | 306° |
| 2026-05-07 19:54 | 50.76754 | 5.36645 | 7987 ft | 277 kts | 306° |
| 2026-05-07 19:55 | 50.77906 | 5.34208 | 7510 ft | 276 kts | 306° |
| 2026-05-07 19:55 | 50.79047 | 5.31791 | 6933 ft | 272 kts | 306° |
| 2026-05-07 19:55 | 50.80171 | 5.29408 | 6362 ft | 266 kts | 306° |
| 2026-05-07 19:55 | 50.81297 | 5.27015 | 6137 ft | 273 kts | 306° |
| 2026-05-07 19:56 | 50.82427 | 5.24613 | 6084 ft | 272 kts | 306° |
| 2026-05-07 19:56 | 50.83556 | 5.22211 | 6078 ft | 272 kts | 306° |
| 2026-05-07 19:56 | 50.84685 | 5.19807 | 6078 ft | 272 kts | 306° |
| 2026-05-07 19:56 | 50.85815 | 5.17402 | 6077 ft | 269 kts | 306° |
| 2026-05-07 19:57 | 50.86890 | 5.15113 | 6077 ft | 251 kts | 306° |
| 2026-05-07 19:57 | 50.87917 | 5.12865 | 6075 ft | 252 kts | 302° |
| 2026-05-07 19:57 | 50.88844 | 5.10513 | 6078 ft | 252 kts | 302° |
| 2026-05-07 19:57 | 50.89764 | 5.08209 | 6028 ft | 249 kts | 302° |
| 2026-05-07 19:58 | 50.90691 | 5.05905 | 5639 ft | 247 kts | 302° |
| 2026-05-07 19:58 | 50.91614 | 5.03611 | 5042 ft | 247 kts | 303° |
| 2026-05-07 19:58 | 50.92540 | 5.01308 | 4396 ft | 247 kts | 303° |
| 2026-05-07 19:58 | 50.93446 | 4.99056 | 4072 ft | 234 kts | 303° |
| 2026-05-07 19:59 | 50.94290 | 4.96954 | 3998 ft | 217 kts | 303° |
| 2026-05-07 19:59 | 50.95094 | 4.94951 | 4000 ft | 218 kts | 303° |
| 2026-05-07 19:59 | 50.95895 | 4.92954 | 4005 ft | 207 kts | 303° |
| 2026-05-07 19:59 | 50.96621 | 4.91139 | 4002 ft | 191 kts | 303° |
| 2026-05-07 20:00 | 50.97265 | 4.89241 | 4008 ft | 196 kts | 293° |
| 2026-05-07 20:00 | 50.97578 | 4.87164 | 4009 ft | 195 kts | 272° |
| 2026-05-07 20:00 | 50.97407 | 4.85035 | 4006 ft | 195 kts | 255° |
| 2026-05-07 20:00 | 50.96986 | 4.82996 | 4003 ft | 194 kts | 248° |
| 2026-05-07 20:01 | 50.96504 | 4.80991 | 3951 ft | 194 kts | 249° |
| 2026-05-07 20:01 | 50.96054 | 4.79022 | 3737 ft | 185 kts | 249° |
| 2026-05-07 20:01 | 50.95629 | 4.77172 | 3489 ft | 172 kts | 249° |
| 2026-05-07 20:01 | 50.95217 | 4.75386 | 3255 ft | 173 kts | 249° |
| 2026-05-07 20:02 | 50.94810 | 4.73617 | 3006 ft | 172 kts | 249° |
| 2026-05-07 20:02 | 50.94399 | 4.71838 | 2779 ft | 169 kts | 249° |
| 2026-05-07 20:02 | 50.93991 | 4.70077 | 2555 ft | 170 kts | 249° |
| 2026-05-07 20:02 | 50.93589 | 4.68327 | 2322 ft | 171 kts | 249° |
| 2026-05-07 20:03 | 50.93186 | 4.66577 | 2089 ft | 166 kts | 249° |
| 2026-05-07 20:03 | 50.92790 | 4.64861 | 1864 ft | 168 kts | 249° |
| 2026-05-07 20:03 | 50.92390 | 4.63130 | 1641 ft | 168 kts | 249° |
| 2026-05-07 20:03 | 50.91991 | 4.61401 | 1401 ft | 166 kts | 249° |
| 2026-05-07 20:04 | 50.91592 | 4.59678 | 1173 ft | 166 kts | 250° |
| 2026-05-07 20:04 | 50.91188 | 4.57963 | 933 ft | 165 kts | 250° |
| 2026-05-07 20:04 | 50.90806 | 4.56251 | 723 ft | 164 kts | 250° |
| 2026-05-07 20:04 | 50.90414 | 4.54566 | 500 ft | 163 kts | 249° |
| 2026-05-07 20:05 | 50.90029 | 4.52907 | 291 ft | 162 kts | 250° |
| 2026-05-07 20:05 | 50.89659 | 4.51304 | 155 ft | 126 kts | 250° |
| 2026-05-07 20:05 | 50.89524 | 4.50720 | 151 ft | 0 kts | 251° |
| 2026-05-07 20:06 | 50.89485 | 4.50409 | 151 ft | 37 kts | 269° |
| 2026-05-07 20:06 | 50.89508 | 4.50180 | 156 ft | 9 kts | 281° |
| 2026-05-07 20:06 | 50.89522 | 4.50064 | 156 ft | 13 kts | 281° |
| 2026-05-07 20:06 | 50.89530 | 4.49891 | 155 ft | 18 kts | 264° |
| 2026-05-07 20:07 | 50.89484 | 4.49702 | 155 ft | 20 kts | 248° |
| 2026-05-07 20:07 | 50.89448 | 4.49511 | 148 ft | 18 kts | 273° |
| 2026-05-07 20:07 | 50.89522 | 4.49355 | 146 ft | 19 kts | 309° |
| 2026-05-07 20:07 | 50.89579 | 4.49269 | 148 ft | 8 kts | 345° |
| 2026-05-07 20:08 | 50.89649 | 4.49265 | 148 ft | 12 kts | 3° |
| 2026-05-07 20:08 | 50.89738 | 4.49297 | 150 ft | 14 kts | 15° |
| 2026-05-07 20:08 | 50.89779 | 4.49315 | 150 ft | 2 kts | 15° |
| 2026-05-07 20:08 | 50.89812 | 4.49330 | 150 ft | 8 kts | 15° |
| 2026-05-07 20:09 | 50.89881 | 4.49360 | 149 ft | 13 kts | 15° |
| 2026-05-07 20:09 | 50.89979 | 4.49399 | 149 ft | 16 kts | 14° |
| 2026-05-07 20:09 | 50.90108 | 4.49451 | 145 ft | 22 kts | 15° |
| 2026-05-07 20:10 | 50.90297 | 4.49527 | 143 ft | 0 kts | 14° |
| 2026-05-07 20:11 | 50.90298 | 4.49528 | 143 ft | 0 kts | 14° |
| 2026-05-07 20:11 | 50.90320 | 4.49536 | 143 ft | 6 kts | 12° |
| 2026-05-07 20:12 | 50.90375 | 4.49505 | 142 ft | 11 kts | 327° |
| 2026-05-07 20:12 | 50.90409 | 4.49431 | 140 ft | 14 kts | 291° |
| 2026-05-07 20:12 | 50.90451 | 4.49289 | 140 ft | 10 kts | 320° |
| 2026-05-07 20:12 | 50.90525 | 4.49226 | 139 ft | 15 kts | 336° |
| 2026-05-07 20:13 | 50.90592 | 4.49181 | 136 ft | 11 kts | 336° |
| 2026-05-07 20:13 | 50.90646 | 4.49137 | 132 ft | 1 kts | 320° |
| 2026-05-07 20:13 | 50.90642 | 4.49088 | 135 ft | 7 kts | 256° |
| 2026-05-07 20:13 | 50.90620 | 4.48989 | 136 ft | 13 kts | 246° |
| 2026-05-07 20:14 | 50.90579 | 4.48840 | 137 ft | 17 kts | 244° |
| 2026-05-07 20:14 | 50.90525 | 4.48661 | 140 ft | 19 kts | 244° |
| 2026-05-07 20:14 | 50.90472 | 4.48470 | 142 ft | 13 kts | 248° |
| 2026-05-07 20:14 | 50.90443 | 4.48362 | 144 ft | 0 kts | 246° |
| 2026-05-07 20:15 | 50.90436 | 4.48337 | 147 ft | 7 kts | 245° |
| 2026-05-07 20:15 | 50.90412 | 4.48279 | 145 ft | 3 kts | 220° |
| 2026-05-07 20:15 | 50.90385 | 4.48284 | 145 ft | 6 kts | 167° |
| 2026-05-07 20:15 | 50.90344 | 4.48305 | 144 ft | 0 kts | 156° |
| 2026-05-07 20:16 | 50.90337 | 4.48310 | 144 ft | 0 kts | 156° |
| 2026-05-07 20:16 | 50.90335 | 4.48311 | 144 ft | 0 kts | 156° |